createdAt,value
2018-11-29T00:02:56.769Z,4.04
2018-11-29T00:05:27.176Z,4.06
2018-11-29T00:08:00.909Z,4.12
2018-11-29T00:10:30.878Z,4.08
2018-11-29T00:13:00.681Z,4.01
2018-11-29T00:15:30.397Z,4.06
2018-11-29T00:18:09.646Z,4.10
2018-11-29T00:20:39.484Z,4.13
2018-11-29T00:23:09.262Z,4.16
2018-11-29T00:25:38.901Z,4.14
2018-11-29T00:28:08.624Z,4.17
2018-11-29T00:30:38.997Z,4.19
2018-11-29T00:33:08.673Z,4.14
2018-11-29T00:35:38.456Z,4.11
2018-11-29T00:38:08.165Z,4.13
2018-11-29T00:40:37.812Z,4.12
2018-11-29T00:43:07.661Z,4.12
2018-11-29T00:45:37.437Z,4.13
2018-11-29T00:48:07.258Z,4.13
2018-11-29T00:50:36.986Z,4.07
2018-11-29T00:53:06.825Z,4.08
2018-11-29T00:55:36.573Z,4.07
2018-11-29T00:58:06.561Z,4.02
2018-11-29T01:00:36.273Z,4.00
2018-11-29T01:03:23.220Z,3.96
2018-11-29T01:05:52.886Z,3.96
2018-11-29T01:08:22.516Z,3.96
2018-11-29T01:10:52.204Z,3.94
2018-11-29T01:13:22.852Z,3.89
2018-11-29T01:15:52.593Z,3.84
2018-11-29T01:18:27.011Z,3.81
2018-11-29T01:20:56.652Z,3.79
2018-11-29T01:23:26.340Z,3.79
2018-11-29T01:25:56.133Z,3.82
2018-11-29T01:28:26.281Z,3.77
2018-11-29T01:30:56.000Z,3.79
2018-11-29T01:33:25.740Z,3.80
2018-11-29T01:35:55.566Z,3.81
2018-11-29T01:38:25.227Z,3.79
2018-11-29T01:40:54.881Z,3.78
2018-11-29T01:43:24.633Z,3.78
2018-11-29T01:45:54.406Z,3.77
2018-11-29T01:48:24.017Z,3.74
2018-11-29T01:50:53.683Z,3.71
2018-11-29T01:53:23.382Z,3.72
2018-11-29T01:55:53.420Z,3.74
2018-11-29T01:58:23.226Z,3.73
2018-11-29T02:00:52.944Z,3.69
2018-11-29T02:03:22.706Z,3.71
2018-11-29T02:09:01.010Z,3.67
2018-11-29T02:11:30.697Z,3.64
2018-11-29T02:14:00.439Z,3.64
2018-11-29T02:16:30.165Z,3.68
2018-11-29T02:18:59.884Z,3.76
2018-11-29T02:21:29.660Z,3.80
2018-11-29T02:23:59.446Z,3.84
2018-11-29T02:26:29.439Z,3.86
2018-11-29T02:28:59.188Z,3.81
2018-11-29T02:31:32.920Z,3.84
2018-11-29T02:34:02.612Z,3.88
2018-11-29T02:36:32.466Z,3.88
2018-11-29T02:39:09.821Z,3.85
2018-11-29T02:41:39.550Z,3.94
2018-11-29T02:44:09.265Z,3.94
2018-11-29T02:46:38.981Z,3.94
2018-11-29T02:49:08.744Z,3.93
2018-11-29T02:51:38.376Z,3.92
2018-11-29T02:54:08.143Z,3.94
2018-11-29T02:56:37.915Z,3.97
2018-11-29T02:59:07.838Z,4.01
2018-11-29T03:01:37.707Z,3.99
2018-11-29T03:04:07.659Z,3.98
2018-11-29T03:06:37.320Z,3.97
2018-11-29T03:09:07.669Z,3.97
2018-11-29T03:11:37.278Z,3.94
2018-11-29T03:14:07.197Z,3.91
2018-11-29T03:16:44.692Z,3.94
2018-11-29T03:19:14.425Z,3.96
2018-11-29T03:21:44.148Z,3.98
2018-11-29T03:24:13.852Z,3.97
2018-11-29T03:26:43.493Z,3.97
2018-11-29T03:29:13.237Z,3.95
2018-11-29T03:31:42.967Z,3.95
2018-11-29T03:34:12.595Z,3.93
2018-11-29T03:36:42.308Z,3.91
2018-11-29T03:39:12.110Z,3.91
2018-11-29T03:41:41.777Z,3.87
2018-11-29T03:44:11.437Z,3.84
2018-11-29T03:46:41.200Z,3.77
2018-11-29T03:49:10.853Z,3.68
2018-11-29T03:51:40.569Z,3.62
2018-11-29T03:54:10.386Z,3.54
2018-11-29T03:56:40.078Z,3.44
2018-11-29T03:59:09.814Z,3.37
2018-11-29T04:01:39.588Z,3.26
2018-11-29T04:04:09.727Z,3.21
2018-11-29T04:06:39.434Z,3.08
2018-11-29T04:09:11.705Z,2.98
2018-11-29T04:11:41.444Z,2.92
2018-11-29T04:14:11.233Z,2.89
2018-11-29T04:16:41.961Z,2.94
2018-11-29T04:19:11.681Z,3.03
2018-11-29T04:21:41.964Z,3.08
2018-11-29T04:24:11.688Z,3.18
2018-11-29T04:26:41.343Z,3.24
2018-11-29T04:29:11.090Z,3.26
2018-11-29T04:31:40.831Z,3.26
2018-11-29T04:34:10.589Z,3.21
2018-11-29T04:36:40.308Z,3.15
2018-11-29T04:39:10.086Z,3.25
2018-11-29T04:41:39.732Z,3.30
2018-11-29T04:44:09.425Z,3.34
2018-11-29T04:46:48.398Z,3.35
2018-11-29T04:49:18.156Z,3.38
2018-11-29T04:51:47.979Z,3.41
2018-11-29T04:54:17.685Z,3.43
2018-11-29T04:56:47.402Z,3.49
2018-11-29T04:59:16.993Z,3.44
2018-11-29T05:01:46.667Z,3.42
2018-11-29T05:04:16.354Z,3.43
2018-11-29T05:06:46.242Z,3.39
2018-11-29T05:09:15.860Z,3.42
2018-11-29T05:11:45.535Z,3.35
2018-11-29T05:14:15.280Z,3.21
2018-11-29T05:16:44.988Z,3.08
2018-11-29T05:19:14.746Z,2.99
2018-11-29T05:21:44.569Z,2.89
2018-11-29T05:24:14.304Z,2.83
2018-11-29T05:26:44.182Z,2.75
2018-11-29T05:29:13.869Z,2.68
2018-11-29T05:31:43.643Z,2.61
2018-11-29T05:34:13.339Z,2.52
2018-11-29T05:36:43.114Z,2.47
2018-11-29T05:39:13.167Z,2.41
2018-11-29T05:41:42.892Z,2.35
2018-11-29T05:44:18.009Z,2.29
2018-11-29T05:46:47.736Z,2.26
2018-11-29T05:49:17.478Z,2.20
2018-11-29T05:51:47.197Z,2.16
2018-11-29T05:54:17.784Z,2.11
2018-11-29T05:56:47.418Z,2.01
2018-11-29T05:59:18.147Z,1.99
2018-11-29T06:01:48.953Z,1.94
2018-11-29T06:04:18.693Z,1.93
2018-11-29T06:06:48.414Z,1.88
2018-11-29T06:09:18.409Z,1.87
2018-11-29T06:11:48.189Z,1.80
2018-11-29T06:14:17.969Z,1.73
2018-11-29T06:16:47.791Z,1.69
2018-11-29T06:19:17.558Z,1.70
2018-11-29T06:21:47.280Z,1.70
2018-11-29T06:24:16.905Z,1.66
2018-11-29T06:26:46.824Z,1.67
2018-11-29T06:29:16.417Z,1.71
2018-11-29T06:31:46.140Z,1.73
2018-11-29T06:34:19.452Z,1.73
2018-11-29T06:36:49.097Z,1.78
2018-11-29T06:39:18.763Z,1.84
2018-11-29T06:41:48.466Z,1.90
2018-11-29T06:44:18.218Z,1.98
2018-11-29T06:46:47.889Z,2.08
2018-11-29T06:49:17.708Z,2.20
2018-11-29T06:51:47.464Z,2.32
2018-11-29T06:54:17.321Z,2.39
2018-11-29T06:56:47.097Z,2.42
2018-11-29T06:59:16.693Z,2.35
2018-11-29T07:01:46.478Z,2.29
2018-11-29T07:04:27.045Z,2.24
2018-11-29T07:06:56.773Z,2.26
2018-11-29T07:09:26.809Z,2.26
2018-11-29T07:11:56.510Z,2.26
2018-11-29T07:14:29.612Z,2.28
2018-11-29T07:16:59.312Z,2.31
2018-11-29T07:19:29.075Z,2.27
2018-11-29T07:21:58.785Z,2.28
2018-11-29T07:24:28.501Z,2.29
2018-11-29T07:26:58.261Z,2.31
2018-11-29T07:29:28.058Z,2.31
2018-11-29T07:31:57.807Z,2.33
2018-11-29T07:34:35.016Z,2.36
2018-11-29T07:37:04.665Z,2.36
2018-11-29T07:39:34.541Z,2.40
2018-11-29T07:42:04.366Z,2.43
2018-11-29T07:44:34.853Z,2.45
2018-11-29T07:47:04.680Z,2.57
2018-11-29T07:49:34.337Z,2.65
2018-11-29T07:52:04.159Z,2.68
2018-11-29T07:54:33.962Z,2.78
2018-11-29T07:57:03.889Z,2.85
2018-11-29T07:59:33.822Z,3.02
2018-11-29T08:02:03.565Z,3.38
2018-11-29T08:04:33.341Z,3.74
2018-11-29T08:07:02.991Z,4.22
2018-11-29T08:09:32.713Z,4.94
2018-11-29T08:12:02.454Z,5.43
2018-11-29T08:14:32.484Z,6.19
2018-11-29T08:17:02.252Z,6.23
2018-11-29T08:19:31.922Z,6.42
2018-11-29T08:22:01.649Z,6.29
2018-11-29T08:24:31.334Z,6.10
2018-11-29T08:27:01.037Z,5.57
2018-11-29T08:29:35.085Z,5.56
2018-11-29T08:32:00.614Z,5.57
2018-11-29T08:34:30.225Z,5.55
2018-11-29T08:36:59.881Z,5.51
2018-11-29T08:39:29.588Z,5.81
2018-11-29T08:41:59.360Z,5.35
2018-11-29T08:44:29.120Z,5.64
2018-11-29T08:46:58.817Z,5.66
2018-11-29T08:49:28.570Z,5.44
2018-11-29T08:51:58.234Z,5.24
2018-11-29T08:54:27.981Z,5.22
2018-11-29T08:56:59.636Z,5.32
2018-11-29T08:59:29.422Z,5.52
2018-11-29T09:01:59.137Z,5.31
2018-11-29T09:04:28.904Z,5.20
2018-11-29T09:06:58.671Z,5.18
2018-11-29T09:09:28.473Z,5.39
2018-11-29T09:11:58.249Z,5.34
2018-11-29T09:14:28.129Z,5.14
2018-11-29T09:16:57.825Z,5.40
2018-11-29T09:19:27.573Z,5.28
2018-11-29T09:21:57.309Z,5.53
2018-11-29T09:24:27.013Z,5.73
2018-11-29T09:26:56.792Z,5.73
2018-11-29T09:29:26.534Z,5.80
2018-11-29T09:31:56.289Z,6.09
2018-11-29T09:34:25.996Z,6.59
2018-11-29T09:36:55.783Z,6.68
2018-11-29T09:39:25.489Z,6.56
2018-11-29T09:41:55.159Z,7.05
2018-11-29T09:44:24.891Z,7.67
2018-11-29T09:46:54.935Z,7.34
2018-11-29T09:49:24.637Z,7.41
2018-11-29T09:51:54.261Z,7.80
2018-11-29T09:54:24.051Z,8.09
2018-11-29T09:56:53.846Z,7.75
2018-11-29T09:59:23.567Z,7.16
2018-11-29T10:01:53.540Z,7.23
2018-11-29T10:04:23.203Z,7.20
2018-11-29T10:06:52.811Z,6.47
2018-11-29T10:09:22.561Z,6.57
2018-11-29T10:11:52.249Z,6.80
2018-11-29T10:14:21.954Z,6.79
2018-11-29T10:16:51.648Z,6.57
2018-11-29T10:19:21.337Z,6.70
2018-11-29T10:21:51.248Z,6.93
2018-11-29T10:24:20.960Z,7.50
2018-11-29T10:26:51.175Z,7.78
2018-11-29T10:29:20.851Z,7.81
2018-11-29T10:31:50.447Z,7.02
2018-11-29T10:34:20.135Z,7.61
2018-11-29T10:36:49.853Z,7.68
2018-11-29T10:39:19.641Z,8.02
2018-11-29T10:41:49.386Z,7.65
2018-11-29T10:44:19.106Z,7.54
2018-11-29T10:46:48.727Z,7.66
2018-11-29T10:49:18.390Z,6.98
2018-11-29T10:51:48.158Z,6.83
2018-11-29T10:54:17.843Z,7.07
2018-11-29T10:56:47.601Z,6.98
2018-11-29T10:59:17.378Z,6.77
2018-11-29T11:01:51.030Z,7.33
2018-11-29T11:04:20.710Z,7.20
2018-11-29T11:06:50.519Z,7.25
2018-11-29T11:09:20.260Z,7.27
2018-11-29T11:11:49.924Z,6.88
2018-11-29T11:14:19.644Z,6.84
2018-11-29T11:16:49.585Z,7.16
2018-11-29T11:19:19.297Z,7.26
2018-11-29T11:21:49.133Z,7.51
2018-11-29T11:24:18.802Z,7.71
2018-11-29T11:26:48.517Z,7.85
2018-11-29T11:29:18.234Z,7.68
2018-11-29T11:31:47.876Z,7.74
2018-11-29T11:34:17.541Z,7.66
2018-11-29T11:36:47.197Z,7.70
2018-11-29T11:39:45.991Z,8.13
2018-11-29T11:42:15.787Z,8.00
2018-11-29T11:44:45.645Z,7.64
2018-11-29T11:47:15.320Z,7.95
2018-11-29T11:49:52.231Z,7.41
2018-11-29T11:52:21.989Z,7.41
2018-11-29T11:54:57.384Z,7.61
2018-11-29T11:57:27.138Z,7.46
2018-11-29T11:59:56.818Z,7.70
2018-11-29T12:02:27.617Z,8.07
2018-11-29T12:04:56.353Z,7.89
2018-11-29T12:07:26.026Z,8.50
2018-11-29T12:09:55.650Z,8.27
2018-11-29T12:12:25.293Z,8.27
2018-11-29T12:14:55.103Z,8.65
2018-11-29T12:17:24.946Z,8.80
2018-11-29T12:19:54.837Z,7.96
2018-11-29T12:22:24.500Z,8.46
2018-11-29T12:24:54.329Z,8.78
2018-11-29T12:27:24.024Z,9.10
2018-11-29T12:29:53.719Z,9.16
2018-11-29T12:32:35.000Z,8.72
2018-11-29T12:35:04.672Z,9.40
2018-11-29T12:37:34.403Z,9.86
2018-11-29T12:40:04.297Z,10.14
2018-11-29T12:42:34.145Z,10.54
2018-11-29T12:45:03.956Z,10.97
2018-11-29T12:47:33.642Z,11.06
2018-11-29T12:50:03.313Z,10.69
2018-11-29T12:52:33.210Z,10.79
2018-11-29T12:55:05.629Z,10.86
2018-11-29T12:58:06.069Z,10.74
2018-11-29T13:00:31.245Z,10.12
2018-11-29T13:03:01.069Z,9.68
2018-11-29T13:05:30.739Z,9.58
2018-11-29T13:08:03.162Z,9.42
2018-11-29T13:10:33.552Z,9.02
2018-11-29T13:13:03.549Z,8.62
2018-11-29T13:15:34.976Z,9.10
2018-11-29T13:18:08.025Z,8.74
2018-11-29T13:20:38.248Z,8.89
2018-11-29T13:23:08.477Z,8.77
2018-11-29T13:25:38.388Z,9.07
2018-11-29T13:28:09.059Z,9.01
2018-11-29T13:30:39.437Z,8.77
2018-11-29T13:33:10.328Z,8.73
2018-11-29T13:35:40.030Z,8.81
2018-11-29T13:38:13.957Z,8.51
2018-11-29T13:40:47.008Z,8.62
2018-11-29T13:43:17.873Z,8.51
2018-11-29T13:45:47.780Z,8.86
2018-11-29T13:48:17.436Z,8.65
2018-11-29T13:50:47.500Z,8.44
2018-11-29T13:53:17.233Z,8.16
2018-11-29T13:55:48.101Z,7.98
2018-11-29T13:58:17.768Z,7.94
2018-11-29T14:00:47.487Z,8.27
2018-11-29T14:03:17.521Z,8.31
2018-11-29T14:05:47.166Z,8.16
2018-11-29T14:08:16.835Z,8.13
2018-11-29T14:10:53.780Z,8.28
2018-11-29T14:13:23.474Z,8.18
2018-11-29T14:15:53.820Z,7.78
2018-11-29T14:18:23.496Z,7.57
2018-11-29T14:20:53.441Z,7.44
2018-11-29T14:23:23.106Z,7.27
2018-11-29T14:25:52.860Z,7.21
2018-11-29T14:28:44.845Z,7.16
2018-11-29T14:31:14.594Z,7.14
2018-11-29T14:33:44.328Z,6.99
2018-11-29T14:36:14.197Z,7.00
2018-11-29T14:38:43.852Z,6.95
2018-11-29T14:41:13.521Z,6.86
2018-11-29T14:43:43.358Z,6.84
2018-11-29T14:46:13.069Z,6.79
2018-11-29T14:48:42.783Z,6.74
2018-11-29T14:51:12.485Z,6.71
2018-11-29T14:53:42.295Z,6.67
2018-11-29T14:56:12.707Z,6.60
2018-11-29T14:58:42.439Z,6.57
2018-11-29T15:01:12.821Z,6.50
2018-11-29T15:03:42.669Z,6.49
2018-11-29T15:06:12.549Z,6.39
2018-11-29T15:08:42.417Z,6.36
2018-11-29T15:11:12.167Z,6.31
2018-11-29T15:13:44.353Z,6.30
2018-11-29T15:16:14.138Z,6.21
2018-11-29T15:18:43.929Z,6.16
2018-11-29T15:21:15.692Z,6.11
2018-11-29T15:24:05.241Z,6.13
2018-11-29T15:26:36.126Z,6.08
2018-11-29T15:29:06.855Z,6.10
2018-11-29T15:31:36.681Z,6.07
2018-11-29T15:34:06.612Z,6.08
2018-11-29T15:36:37.041Z,6.08
2018-11-29T15:39:09.599Z,6.05
2018-11-29T15:41:40.130Z,6.01
2018-11-29T15:44:11.256Z,6.00
2018-11-29T15:46:41.134Z,5.99
2018-11-29T15:49:11.469Z,6.02
2018-11-29T15:51:42.575Z,6.02
2018-11-29T15:54:22.309Z,6.05
2018-11-29T15:56:52.853Z,6.04
2018-11-29T15:59:26.642Z,6.03
2018-11-29T16:02:00.882Z,6.06
2018-11-29T16:04:30.712Z,6.04
2018-11-29T16:07:00.573Z,6.02
2018-11-29T16:09:30.471Z,6.02
2018-11-29T16:12:06.181Z,5.98
2018-11-29T16:14:36.578Z,5.96
2018-11-29T16:17:07.372Z,5.94
2018-11-29T16:19:37.873Z,5.84
2018-11-29T16:22:17.126Z,5.83
2018-11-29T16:24:47.213Z,5.81
2018-11-29T16:27:29.289Z,5.80
2018-11-29T16:30:01.676Z,5.74
2018-11-29T16:32:32.253Z,5.73
2018-11-29T16:35:02.308Z,5.73
2018-11-29T16:37:32.614Z,5.70
2018-11-29T16:40:07.201Z,5.69
2018-11-29T16:42:47.197Z,5.68
2018-11-29T16:45:23.937Z,5.68
2018-11-29T16:47:53.758Z,5.65
2018-11-29T16:50:29.294Z,5.60
2018-11-29T16:52:59.460Z,5.54
2018-11-29T16:55:29.288Z,5.45
2018-11-29T16:58:02.460Z,5.40
2018-11-29T17:00:32.342Z,5.35
2018-11-29T17:03:02.792Z,5.29
2018-11-29T17:05:34.661Z,5.20
2018-11-29T17:08:05.129Z,5.18
2018-11-29T17:10:35.081Z,5.11
2018-11-29T17:13:08.682Z,5.04
2018-11-29T17:15:42.950Z,5.04
2018-11-29T17:18:13.012Z,4.99
2018-11-29T17:20:42.771Z,4.92
2018-11-29T17:23:13.498Z,4.88
2018-11-29T17:25:43.298Z,4.86
2018-11-29T17:28:13.029Z,4.82
2018-11-29T17:30:42.858Z,4.80
2018-11-29T17:33:12.669Z,4.72
2018-11-29T17:36:05.347Z,4.68
2018-11-29T17:38:36.092Z,4.64
2018-11-29T17:41:07.318Z,4.59
2018-11-29T17:43:37.541Z,4.58
2018-11-29T17:46:07.492Z,4.58
2018-11-29T17:48:37.278Z,4.58
2018-11-29T17:51:07.568Z,4.58
2018-11-29T17:53:37.407Z,4.56
2018-11-29T17:56:08.553Z,4.58
2018-11-29T17:58:38.649Z,4.63
2018-11-29T18:01:08.369Z,4.63
2018-11-29T18:03:38.113Z,4.71
2018-11-29T18:06:07.954Z,4.68
2018-11-29T18:08:37.778Z,4.66
2018-11-29T18:11:08.916Z,4.65
2018-11-29T18:13:41.060Z,4.66
2018-11-29T18:16:11.546Z,4.65
2018-11-29T18:18:41.274Z,4.65
2018-11-29T18:21:11.039Z,4.61
2018-11-29T18:23:41.273Z,4.61
2018-11-29T18:26:11.025Z,4.64
2018-11-29T18:28:40.721Z,4.64
2018-11-29T18:31:10.514Z,4.67
2018-11-29T18:33:40.397Z,4.65
2018-11-29T18:36:14.198Z,4.56
2018-11-29T18:38:39.771Z,4.50
2018-11-29T18:41:09.553Z,4.45
2018-11-29T18:43:39.919Z,4.38
2018-11-29T18:46:09.702Z,4.32
2018-11-29T18:48:39.478Z,4.25
2018-11-29T18:51:09.842Z,4.21
2018-11-29T18:53:40.847Z,4.16
2018-11-29T18:56:10.356Z,4.11
2018-11-29T18:58:39.964Z,4.07
2018-11-29T19:01:09.786Z,4.03
2018-11-29T19:03:39.691Z,3.97
2018-11-29T19:06:10.003Z,3.95
2018-11-29T19:08:39.959Z,3.93
2018-11-29T19:11:09.607Z,3.94
2018-11-29T19:13:39.260Z,3.98
2018-11-29T19:16:08.925Z,4.01
2018-11-29T19:18:38.560Z,4.01
2018-11-29T19:21:08.684Z,3.99
2018-11-29T19:23:38.309Z,4.03
2018-11-29T19:26:08.982Z,4.04
2018-11-29T19:28:38.661Z,4.05
2018-11-29T19:31:08.286Z,4.07
2018-11-29T19:33:38.380Z,4.13
2018-11-29T19:36:08.321Z,4.09
2018-11-29T19:38:38.014Z,4.00
2018-11-29T19:41:07.893Z,4.03
2018-11-29T19:43:37.616Z,4.06
2018-11-29T19:46:07.377Z,4.09
2018-11-29T19:48:37.638Z,4.08
2018-11-29T19:51:07.846Z,4.14
2018-11-29T19:53:38.229Z,4.23
2018-11-29T19:56:08.002Z,4.28
2018-11-29T19:58:38.040Z,4.29
2018-11-29T20:01:08.909Z,4.28
2018-11-29T20:03:39.565Z,4.26
2018-11-29T20:06:09.328Z,4.22
2018-11-29T20:08:39.125Z,4.17
2018-11-29T20:11:10.077Z,4.14
2018-11-29T20:13:41.565Z,4.16
2018-11-29T20:16:20.975Z,4.16
2018-11-29T20:18:54.729Z,4.15
2018-11-29T20:21:28.412Z,4.15
2018-11-29T20:23:58.150Z,4.16
2018-11-29T20:26:27.915Z,4.14
2018-11-29T20:29:01.688Z,4.15
2018-11-29T20:31:34.280Z,4.17
2018-11-29T20:34:04.563Z,4.19
2018-11-29T20:36:34.477Z,4.19
2018-11-29T20:39:10.722Z,4.21
2018-11-29T20:41:51.195Z,4.25
2018-11-29T20:44:21.069Z,4.27
2018-11-29T20:46:51.075Z,4.31
2018-11-29T20:49:27.936Z,4.37
2018-11-29T20:51:59.161Z,4.34
2018-11-29T20:54:32.151Z,4.35
2018-11-29T20:57:06.257Z,4.36
2018-11-29T20:59:42.056Z,4.40
2018-11-29T21:02:11.861Z,4.43
2018-11-29T21:04:45.026Z,4.42
2018-11-29T21:07:14.925Z,4.44
2018-11-29T21:09:44.985Z,4.48
2018-11-29T21:12:14.736Z,4.52
2018-11-29T21:14:52.360Z,4.57
2018-11-29T21:17:27.887Z,4.61
2018-11-29T21:20:02.363Z,4.60
2018-11-29T21:22:32.431Z,4.59
2018-11-29T21:25:02.413Z,4.56
2018-11-29T21:27:32.141Z,4.57
2018-11-29T21:30:03.725Z,4.53
2018-11-29T21:32:34.982Z,4.52
2018-11-29T21:35:05.074Z,4.47
2018-11-29T21:37:34.878Z,4.48
2018-11-29T21:40:23.989Z,4.47
2018-11-29T21:42:53.790Z,4.47
2018-11-29T21:45:26.320Z,4.46
2018-11-29T21:47:57.364Z,4.46
2018-11-29T21:50:27.566Z,4.47
2018-11-29T21:53:03.719Z,4.47
2018-11-29T21:55:37.996Z,4.47
2018-11-29T21:58:07.829Z,4.49
2018-11-29T22:00:42.030Z,4.51
2018-11-29T22:03:15.005Z,4.55
2018-11-29T22:05:49.166Z,4.58
2018-11-29T22:08:19.149Z,4.58
2018-11-29T22:10:48.841Z,4.58
2018-11-29T22:13:22.283Z,4.58
2018-11-29T22:15:52.111Z,4.59
2018-11-29T22:18:30.604Z,4.60
2018-11-29T22:21:07.654Z,4.63
2018-11-29T22:23:45.318Z,4.65
2018-11-29T22:26:21.209Z,4.67
2018-11-29T22:28:51.096Z,4.63
2018-11-29T22:31:20.949Z,4.64
2018-11-29T22:33:50.625Z,4.61
2018-11-29T22:36:23.560Z,4.58
2018-11-29T22:38:55.874Z,4.57
2018-11-29T22:41:35.552Z,4.58
2018-11-29T22:44:08.553Z,4.58
2018-11-29T22:46:40.333Z,4.59
2018-11-29T22:49:10.128Z,4.55
2018-11-29T22:51:39.777Z,4.54
2018-11-29T22:54:09.424Z,4.53
2018-11-29T22:56:39.546Z,4.52
2018-11-29T22:59:09.277Z,4.50
2018-11-29T23:01:39.041Z,4.45
2018-11-29T23:04:08.856Z,4.40
2018-11-29T23:06:38.724Z,4.29
2018-11-29T23:09:10.469Z,4.28
2018-11-29T23:11:40.313Z,4.30
2018-11-29T23:14:26.580Z,4.30
2018-11-29T23:16:56.338Z,4.33
2018-11-29T23:19:26.040Z,4.35
2018-11-29T23:21:55.738Z,4.35
2018-11-29T23:24:25.453Z,4.36
2018-11-29T23:27:01.146Z,4.39
2018-11-29T23:29:30.832Z,4.39
2018-11-29T23:32:00.609Z,4.40
2018-11-29T23:34:30.222Z,4.39
2018-11-29T23:37:00.027Z,4.38
2018-11-29T23:39:29.760Z,4.36
2018-11-29T23:41:59.499Z,4.33
2018-11-29T23:44:29.200Z,4.33
2018-11-29T23:46:58.878Z,4.31
2018-11-29T23:49:28.472Z,4.30
2018-11-29T23:51:58.592Z,4.25
2018-11-29T23:54:28.329Z,4.25
2018-11-29T23:56:58.088Z,4.20
2018-11-29T23:59:27.803Z,4.22
